Bell City, MO (63735)

5:54 AM CDT on July 31, 2016 (GMT -0500)
Sikeston Ridge | | Change Station

Elev 326 ft 36.89 °N, 89.60 °W | Updated 11 minutes ago

Mostly Cloudy
Mostly Cloudy
75.3 °F
Feels Like 74 °F
N
0.0
Wind Variable Wind from WSW
Gusts 0.0 mph

Today
High -- | Low -- °F
--% Chance of Precip.
Yesterday
High -- | Low -- °F
Precip. -- in
Pressure 29.96 in
Visibility 10.0 miles
Clouds Scattered Clouds 4400 ft
Mostly Cloudy 7000 ft
Mostly Cloudy 11000 ft
Heat Index 74 °F
Dew Point 74 °F
Humidity 94%
Rainfall 0.00 in
Snow Depth Not available.
6:03 AM 8:06 PM
Waning Crescent, 7% visible
METAR KCGI 310953Z AUTO 00000KT 10SM SCT044 BKN070 BKN110 23/22 A2997 RMK AO2 SLP146 T02280222
Pressure 29.96 in
Visibility 10.0 miles
Clouds Scattered Clouds 4400 ft
Mostly Cloudy 7000 ft
Mostly Cloudy 11000 ft
Heat Index 74 °F
Dew Point 74 °F
Humidity 94%
Rainfall 0.00 in
Snow Depth Not available.
6:03 AM 8:06 PM
Waning Crescent, 7% visible
METAR KCGI 310953Z AUTO 00000KT 10SM SCT044 BKN070 BKN110 23/22 A2997 RMK AO2 SLP146 T02280222

10-Day Weather Forecast

Almanac

Astronomy

Jul. 31, 2016 Rise Set
Actual Time
Civil Twilight
Nautical Twilight
Astronomical Twilight
Moon
Length of Visible Light
Length of Day
Tomorrow will be .
, % of the Moon is Illuminated

Today's Extremes

State Highs State Lows

Community

WunderPhotos

Upload Photos

1,928,785 photos uploaded!

WunderBlog® & News

Nearby

Air Quality

  Air Quality AQ Index Pollutant
Not available.

Snow Depth

Station Depth Elevation

Earthquake Activity

City Distance Mag. Time & Date
Minimum magnitude displayed is 2.5.

Coastal Water Temperatures

Place Temperature

Stations

Nearby Weather Stations

Station Location Temp. Windchill Dew Point Humidity Wind Precip. Elev Updated Type
                   

Watches & Warnings

There are currently no watches in effect.